createdAt,value
2023-02-09T00:00:09.529Z,-1.29
2023-02-09T00:02:44.803Z,-1.35
2023-02-09T00:05:14.590Z,-1.42
2023-02-09T00:07:41.192Z,-1.35
2023-02-09T00:10:08.258Z,-1.37
2023-02-09T00:12:55.518Z,-1.41
2023-02-09T00:15:22.129Z,-1.31
2023-02-09T00:17:48.743Z,-1.33
2023-02-09T00:20:15.305Z,-1.40
2023-02-09T00:22:41.898Z,-1.37
2023-02-09T00:25:08.483Z,-1.36
2023-02-09T00:27:35.831Z,-1.29
2023-02-09T00:30:04.398Z,-1.33
2023-02-09T00:32:33.031Z,-1.43
2023-02-09T00:34:59.616Z,-1.65
2023-02-09T00:37:28.044Z,-1.58
2023-02-09T00:39:54.693Z,-1.55
2023-02-09T00:42:21.193Z,-1.51
2023-02-09T00:44:47.765Z,-1.50
2023-02-09T00:47:14.704Z,-1.46
2023-02-09T00:49:41.377Z,-1.45
2023-02-09T00:52:09.935Z,-1.48
2023-02-09T00:54:37.119Z,-1.51
2023-02-09T00:57:05.489Z,-1.53
2023-02-09T00:59:34.891Z,-1.73
2023-02-09T01:02:02.609Z,-1.66
2023-02-09T01:04:29.399Z,-1.58
2023-02-09T01:06:56.128Z,-1.61
2023-02-09T01:09:22.764Z,-1.62
2023-02-09T01:11:49.465Z,-1.63
2023-02-09T01:14:16.550Z,-1.60
2023-02-09T01:16:43.260Z,-1.65
2023-02-09T01:19:12.127Z,-1.68
2023-02-09T01:21:39.005Z,-1.61
2023-02-09T01:24:06.107Z,-1.67
2023-02-09T01:26:33.035Z,-1.67
2023-02-09T01:28:59.608Z,-1.68
2023-02-09T01:31:32.234Z,-1.62
2023-02-09T01:34:01.723Z,-1.67
2023-02-09T01:36:29.738Z,-1.78
2023-02-09T01:38:58.111Z,-1.78
2023-02-09T01:41:25.265Z,-1.73
2023-02-09T01:44:05.221Z,-1.73
2023-02-09T01:46:36.243Z,-1.94
2023-02-09T01:49:03.047Z,-1.89
2023-02-09T01:51:33.005Z,-1.93
2023-02-09T01:53:59.746Z,-1.94
2023-02-09T01:56:30.821Z,-1.90
2023-02-09T01:58:58.545Z,-1.96
2023-02-09T02:01:26.816Z,-2.02
2023-02-09T02:03:54.446Z,-2.01
2023-02-09T02:06:21.504Z,-2.05
2023-02-09T02:09:04.686Z,-1.99
2023-02-09T02:11:32.885Z,-2.05
2023-02-09T02:13:59.755Z,-2.00
2023-02-09T02:16:48.574Z,-2.05
2023-02-09T02:20:12.739Z,-2.16
2023-02-09T02:22:52.199Z,-2.13
2023-02-09T02:25:34.848Z,-2.29
2023-02-09T02:28:16.993Z,-2.11
2023-02-09T02:31:08.279Z,-2.19
2023-02-09T02:34:11.195Z,-2.27
2023-02-09T02:36:57.954Z,-2.27
2023-02-09T02:39:33.615Z,-2.16
2023-02-09T02:42:32.515Z,-2.21
2023-02-09T02:45:12.161Z,-2.45
2023-02-09T02:47:40.453Z,-2.51
2023-02-09T02:50:15.151Z,-2.51
2023-02-09T02:52:46.428Z,-2.47
2023-02-09T02:55:17.326Z,-2.59
2023-02-09T02:57:48.364Z,-2.56
2023-02-09T03:00:32.197Z,-2.60
2023-02-09T03:03:03.869Z,-2.61
2023-02-09T03:05:32.033Z,-2.61
2023-02-09T03:07:58.763Z,-2.56
2023-02-09T03:10:37.784Z,-2.65
2023-02-09T03:13:13.457Z,-2.56
2023-02-09T03:16:03.103Z,-2.47
2023-02-09T03:18:40.437Z,-2.56
2023-02-09T03:21:25.109Z,-2.54
2023-02-09T03:23:58.966Z,-2.48
2023-02-09T03:26:30.294Z,-2.60
2023-02-09T03:28:59.025Z,-2.60
2023-02-09T03:31:27.999Z,-2.69
2023-02-09T03:33:57.482Z,-2.69
2023-02-09T03:36:25.661Z,-2.67
2023-02-09T03:38:52.294Z,-2.73
2023-02-09T03:41:19.200Z,-2.77
2023-02-09T03:44:04.150Z,-2.76
2023-02-09T03:46:33.329Z,-2.70
2023-02-09T03:49:00.061Z,-2.74
2023-02-09T03:51:26.780Z,-2.75
2023-02-09T03:53:53.411Z,-2.77
2023-02-09T03:56:19.977Z,-2.82
2023-02-09T03:58:46.561Z,-2.78
2023-02-09T04:01:13.172Z,-2.73
2023-02-09T04:03:39.871Z,-2.71
2023-02-09T04:06:09.920Z,-2.76
2023-02-09T04:08:36.700Z,-2.79
2023-02-09T04:11:03.659Z,-2.77
2023-02-09T04:13:30.252Z,-2.80
2023-02-09T04:15:56.833Z,-2.89
2023-02-09T04:18:23.469Z,-2.90
2023-02-09T04:20:50.108Z,-2.96
2023-02-09T04:23:17.332Z,-3.03
2023-02-09T04:25:44.734Z,-2.97
2023-02-09T04:28:11.464Z,-2.96
2023-02-09T04:30:38.194Z,-2.92
2023-02-09T04:33:04.884Z,-2.83
2023-02-09T04:35:31.539Z,-2.87
2023-02-09T04:37:58.111Z,-2.90
2023-02-09T04:40:24.642Z,-2.92
2023-02-09T04:42:51.256Z,-2.92
2023-02-09T04:45:17.961Z,-2.91
2023-02-09T04:47:44.558Z,-3.01
2023-02-09T04:50:15.044Z,-2.96
2023-02-09T04:52:41.592Z,-3.02
2023-02-09T04:55:08.435Z,-3.01
2023-02-09T04:57:53.707Z,-3.08
2023-02-09T05:00:20.420Z,-3.11
2023-02-09T05:02:46.961Z,-3.08
2023-02-09T05:05:13.616Z,-2.91
2023-02-09T05:07:40.508Z,-2.98
2023-02-09T05:10:07.315Z,-3.04
2023-02-09T05:12:33.872Z,-3.05
2023-02-09T05:15:00.470Z,-3.10
2023-02-09T05:17:27.037Z,-3.11
2023-02-09T05:19:53.679Z,-3.08
2023-02-09T05:22:20.286Z,-3.00
2023-02-09T05:24:46.834Z,-3.07
2023-02-09T05:27:13.477Z,-2.90
2023-02-09T05:29:40.133Z,-2.94
2023-02-09T05:32:06.836Z,-2.96
2023-02-09T05:34:33.542Z,-2.93
2023-02-09T05:37:00.111Z,-2.89
2023-02-09T05:39:26.728Z,-2.94
2023-02-09T05:42:11.955Z,-3.21
2023-02-09T05:44:38.545Z,-3.08
2023-02-09T05:47:05.170Z,-2.97
2023-02-09T05:49:31.844Z,-3.08
2023-02-09T05:51:58.421Z,-3.17
2023-02-09T05:54:25.067Z,-3.13
2023-02-09T05:56:51.729Z,-3.17
2023-02-09T05:59:18.491Z,-3.18
2023-02-09T06:01:45.075Z,-3.19
2023-02-09T06:04:11.991Z,-3.25
2023-02-09T06:06:38.556Z,-3.18
2023-02-09T06:09:05.351Z,-3.20
2023-02-09T06:11:31.940Z,-3.10
2023-02-09T06:13:58.710Z,-3.04
2023-02-09T06:16:25.917Z,-3.02
2023-02-09T06:18:52.594Z,-3.04
2023-02-09T06:21:19.296Z,-3.06
2023-02-09T06:23:46.137Z,-3.08
2023-02-09T06:26:15.881Z,-3.17
2023-02-09T06:28:43.122Z,-3.09
2023-02-09T06:31:10.380Z,-3.14
2023-02-09T06:33:38.072Z,-3.19
2023-02-09T06:36:06.142Z,-3.35
2023-02-09T06:38:34.375Z,-3.24
2023-02-09T06:41:01.089Z,-3.10
2023-02-09T06:43:27.779Z,-3.12
2023-02-09T06:45:54.542Z,-3.12
2023-02-09T06:48:21.202Z,-3.05
2023-02-09T06:50:48.193Z,-3.16
2023-02-09T06:53:16.075Z,-3.20
2023-02-09T06:55:42.694Z,-3.15
2023-02-09T06:58:09.627Z,-3.15
2023-02-09T07:00:36.322Z,-3.23
2023-02-09T07:03:03.359Z,-3.20
2023-02-09T07:05:31.419Z,-3.20
2023-02-09T07:07:58.049Z,-3.20
2023-02-09T07:10:25.062Z,-3.15
2023-02-09T07:12:51.702Z,-3.09
2023-02-09T07:15:18.399Z,-3.15
2023-02-09T07:17:45.004Z,-3.05
2023-02-09T07:20:12.661Z,-3.03
2023-02-09T07:22:39.286Z,-3.02
2023-02-09T07:25:06.346Z,-2.99
2023-02-09T07:27:32.925Z,-2.89
2023-02-09T07:30:01.078Z,-2.80
2023-02-09T07:32:28.030Z,-2.77
2023-02-09T07:34:54.641Z,-2.77
2023-02-09T07:37:21.196Z,-2.68
2023-02-09T07:39:48.018Z,-2.55
2023-02-09T07:42:14.743Z,-2.59
2023-02-09T07:44:48.927Z,-2.54
2023-02-09T07:47:15.624Z,-2.52
2023-02-09T07:49:42.371Z,-2.41
2023-02-09T07:52:08.960Z,-2.41
2023-02-09T07:54:35.573Z,-2.22
2023-02-09T07:57:02.111Z,-2.05
2023-02-09T07:59:28.780Z,-2.08
2023-02-09T08:01:55.410Z,-1.95
2023-02-09T08:04:22.785Z,-1.77
2023-02-09T08:06:49.631Z,-1.60
2023-02-09T08:09:19.481Z,-1.53
2023-02-09T08:11:58.465Z,-1.31
2023-02-09T08:14:39.944Z,-1.23
2023-02-09T08:17:24.391Z,-1.12
2023-02-09T08:20:06.503Z,-1.04
2023-02-09T08:22:38.521Z,-0.95
2023-02-09T08:25:06.171Z,-0.98
2023-02-09T08:27:32.956Z,-1.00
2023-02-09T08:30:00.642Z,-0.78
2023-02-09T08:32:27.289Z,-0.63
2023-02-09T08:34:53.894Z,-0.64
2023-02-09T08:37:20.499Z,-0.55
2023-02-09T08:39:47.157Z,-0.46
2023-02-09T08:42:13.721Z,-0.47
2023-02-09T08:44:40.289Z,-0.38
2023-02-09T08:47:06.827Z,-0.46
2023-02-09T08:49:33.493Z,-0.44
2023-02-09T08:52:00.057Z,-0.25
2023-02-09T08:54:27.041Z,-0.16
2023-02-09T08:56:53.806Z,-0.19
2023-02-09T08:59:21.894Z,-0.35
2023-02-09T09:01:48.485Z,-0.33
2023-02-09T09:04:15.092Z,-0.23
2023-02-09T09:06:42.764Z,0.00
2023-02-09T09:09:11.679Z,0.19
2023-02-09T09:11:38.660Z,0.32
2023-02-09T09:14:05.294Z,0.14
2023-02-09T09:16:32.138Z,0.15
2023-02-09T09:18:59.229Z,0.31
2023-02-09T09:21:26.019Z,0.35
2023-02-09T09:23:52.789Z,0.48
2023-02-09T09:26:19.436Z,0.64
2023-02-09T09:28:50.146Z,0.63
2023-02-09T09:31:18.205Z,0.80
2023-02-09T09:33:45.603Z,0.70
2023-02-09T09:36:14.574Z,0.77
2023-02-09T09:38:41.260Z,0.92
2023-02-09T09:41:32.019Z,1.06
2023-02-09T09:44:00.638Z,1.06
2023-02-09T09:46:39.929Z,1.19
2023-02-09T09:49:07.686Z,1.35
2023-02-09T09:51:44.608Z,1.27
2023-02-09T09:54:20.197Z,1.36
2023-02-09T09:56:47.843Z,1.62
2023-02-09T09:59:21.704Z,1.60
2023-02-09T10:01:51.253Z,1.76
2023-02-09T10:04:18.193Z,1.97
2023-02-09T10:06:56.421Z,1.97
2023-02-09T10:09:33.441Z,1.96
2023-02-09T10:12:36.947Z,2.13
2023-02-09T10:15:36.739Z,2.11
2023-02-09T10:18:06.549Z,2.41
2023-02-09T10:20:49.521Z,2.43
2023-02-09T10:23:22.166Z,2.44
2023-02-09T10:25:57.378Z,2.46
2023-02-09T10:28:27.196Z,2.61
2023-02-09T10:30:55.995Z,2.98
2023-02-09T10:33:22.597Z,3.04
2023-02-09T10:35:55.212Z,3.17
2023-02-09T10:38:26.155Z,3.16
2023-02-09T10:40:53.154Z,3.24
2023-02-09T10:43:25.965Z,3.26
2023-02-09T10:45:56.380Z,3.50
2023-02-09T10:48:25.169Z,3.63
2023-02-09T10:51:05.232Z,3.66
2023-02-09T10:53:38.544Z,3.75
2023-02-09T10:56:14.351Z,3.61
2023-02-09T10:58:41.062Z,3.74
2023-02-09T11:01:26.454Z,3.99
2023-02-09T11:04:05.180Z,4.06
2023-02-09T11:06:59.181Z,4.13
2023-02-09T11:09:33.273Z,4.44
2023-02-09T11:12:00.474Z,4.64
2023-02-09T11:14:27.514Z,4.53
2023-02-09T11:17:28.267Z,4.57
2023-02-09T11:20:23.347Z,4.78
2023-02-09T11:23:11.437Z,4.93
2023-02-09T11:25:45.406Z,4.97
2023-02-09T11:28:39.633Z,4.98
2023-02-09T11:31:31.213Z,5.13
2023-02-09T11:34:43.465Z,5.03
2023-02-09T11:37:21.918Z,5.05
2023-02-09T11:39:57.510Z,5.06
2023-02-09T11:42:46.970Z,4.98
2023-02-09T11:45:20.656Z,5.17
2023-02-09T11:48:05.841Z,5.44
2023-02-09T11:50:38.560Z,5.53
2023-02-09T11:53:37.098Z,5.38
2023-02-09T11:56:11.220Z,5.40
2023-02-09T11:58:47.297Z,5.51
2023-02-09T12:01:48.812Z,5.72
2023-02-09T12:04:24.676Z,5.82
2023-02-09T12:06:55.880Z,5.78
2023-02-09T12:09:43.520Z,5.70
2023-02-09T12:12:31.386Z,5.65
2023-02-09T12:15:00.873Z,5.84
2023-02-09T12:17:41.437Z,6.16
2023-02-09T12:20:28.391Z,6.12
2023-02-09T12:22:58.073Z,6.04
2023-02-09T12:25:45.808Z,6.16
2023-02-09T12:28:14.508Z,5.93
2023-02-09T12:30:41.136Z,6.14
2023-02-09T12:33:17.383Z,6.06
2023-02-09T12:36:00.938Z,6.29
2023-02-09T12:38:49.305Z,6.22
2023-02-09T12:41:18.854Z,6.33
2023-02-09T12:43:46.417Z,6.25
2023-02-09T12:46:15.266Z,5.92
2023-02-09T12:49:01.638Z,5.50
2023-02-09T12:52:00.638Z,6.20
2023-02-09T12:54:46.634Z,6.34
2023-02-09T12:57:16.617Z,6.53
2023-02-09T12:59:52.359Z,6.55
2023-02-09T13:02:50.580Z,6.48
2023-02-09T13:05:18.640Z,6.64
2023-02-09T13:07:54.360Z,6.80
2023-02-09T13:10:42.637Z,6.63
2023-02-09T13:13:11.965Z,6.70
2023-02-09T13:15:47.896Z,6.57
2023-02-09T13:18:23.945Z,6.74
2023-02-09T13:20:57.528Z,6.78
2023-02-09T13:23:33.680Z,7.06
2023-02-09T13:26:22.599Z,6.83
2023-02-09T13:28:49.566Z,6.80
2023-02-09T13:31:26.395Z,6.48
2023-02-09T13:33:58.547Z,6.36
2023-02-09T13:36:25.574Z,6.65
2023-02-09T13:38:52.736Z,6.67
2023-02-09T13:41:36.501Z,6.76
2023-02-09T13:44:03.576Z,6.88
2023-02-09T13:46:34.982Z,6.92
2023-02-09T13:49:19.270Z,6.83
2023-02-09T13:51:46.278Z,6.95
2023-02-09T13:54:20.493Z,6.81
2023-02-09T13:56:47.252Z,6.73
2023-02-09T13:59:18.061Z,6.58
2023-02-09T14:01:48.260Z,6.58
2023-02-09T14:04:25.490Z,6.36
2023-02-09T14:07:10.217Z,6.51
2023-02-09T14:09:49.118Z,6.58
2023-02-09T14:12:43.534Z,6.52
2023-02-09T14:15:31.928Z,6.66
2023-02-09T14:17:58.536Z,6.70
2023-02-09T14:20:25.607Z,6.54
2023-02-09T14:23:00.965Z,6.43
2023-02-09T14:25:29.787Z,6.42
2023-02-09T14:27:57.169Z,6.48
2023-02-09T14:30:32.150Z,6.40
2023-02-09T14:33:01.781Z,6.37
2023-02-09T14:35:40.664Z,6.35
2023-02-09T14:38:42.352Z,6.24
2023-02-09T14:41:26.553Z,6.19
2023-02-09T14:44:22.555Z,5.99
2023-02-09T14:46:49.253Z,6.25
2023-02-09T14:49:16.146Z,6.30
2023-02-09T14:51:43.756Z,6.21
2023-02-09T14:54:18.989Z,6.27
2023-02-09T14:56:46.046Z,6.25
2023-02-09T14:59:16.956Z,6.09
2023-02-09T15:01:44.291Z,6.14
2023-02-09T15:04:10.885Z,6.14
2023-02-09T15:06:39.198Z,6.18
2023-02-09T15:09:06.965Z,6.06
2023-02-09T15:11:53.105Z,6.10
2023-02-09T15:14:24.558Z,6.11
2023-02-09T15:16:51.879Z,5.98
2023-02-09T15:19:21.996Z,5.95
2023-02-09T15:22:05.264Z,5.94
2023-02-09T15:24:33.967Z,5.98
2023-02-09T15:27:01.827Z,5.99
2023-02-09T15:29:28.948Z,5.91
2023-02-09T15:31:56.080Z,5.87
2023-02-09T15:34:23.312Z,5.67
2023-02-09T15:36:50.797Z,5.55
2023-02-09T15:39:23.527Z,5.59
2023-02-09T15:42:09.560Z,5.63
2023-02-09T15:44:55.294Z,5.59
2023-02-09T15:47:40.837Z,5.68
2023-02-09T15:50:07.887Z,5.54
2023-02-09T15:52:35.005Z,5.43
2023-02-09T15:55:02.425Z,5.36
2023-02-09T15:57:29.455Z,5.50
2023-02-09T15:59:56.844Z,5.40
2023-02-09T16:02:24.031Z,5.33
2023-02-09T16:04:51.060Z,5.21
2023-02-09T16:07:26.107Z,5.08
2023-02-09T16:09:53.408Z,5.06
2023-02-09T16:12:20.715Z,5.12
2023-02-09T16:14:47.997Z,5.05
2023-02-09T16:17:15.030Z,4.99
2023-02-09T16:19:42.097Z,4.99
2023-02-09T16:22:09.230Z,4.72
2023-02-09T16:24:45.115Z,4.76
2023-02-09T16:27:21.978Z,4.65
2023-02-09T16:29:49.084Z,4.49
2023-02-09T16:32:18.726Z,4.38
2023-02-09T16:34:46.285Z,4.25
2023-02-09T16:37:20.033Z,4.13
2023-02-09T16:39:47.299Z,3.94
2023-02-09T16:42:16.052Z,3.82
2023-02-09T16:44:43.881Z,3.80
2023-02-09T16:47:26.271Z,3.76
2023-02-09T16:50:00.762Z,3.73
2023-02-09T16:52:30.172Z,3.58
2023-02-09T16:55:00.970Z,3.55
2023-02-09T16:57:29.117Z,3.61
2023-02-09T16:59:56.497Z,3.58
2023-02-09T17:02:34.211Z,3.70
2023-02-09T17:05:04.020Z,3.73
2023-02-09T17:07:48.765Z,3.78
2023-02-09T17:10:23.073Z,3.78
2023-02-09T17:12:53.497Z,3.70
2023-02-09T17:15:31.724Z,3.58
2023-02-09T17:18:08.827Z,3.59
2023-02-09T17:20:44.637Z,3.70
2023-02-09T17:23:23.110Z,3.71
2023-02-09T17:25:51.777Z,3.89
2023-02-09T17:28:19.521Z,3.87
2023-02-09T17:30:48.271Z,3.99
2023-02-09T17:33:24.680Z,3.96
2023-02-09T17:38:44.924Z,4.02
2023-02-09T17:41:21.229Z,4.09
2023-02-09T17:43:50.765Z,4.05
2023-02-09T17:46:19.108Z,4.09
2023-02-09T17:48:47.565Z,4.11
2023-02-09T17:51:29.834Z,4.12
2023-02-09T17:53:57.085Z,3.94
2023-02-09T17:56:24.076Z,3.95
2023-02-09T17:58:51.262Z,4.02
2023-02-09T18:01:25.349Z,4.07
2023-02-09T18:03:58.767Z,3.94
2023-02-09T18:06:35.526Z,3.95
2023-02-09T18:09:04.789Z,3.96
2023-02-09T18:11:56.930Z,3.90
2023-02-09T18:14:25.130Z,4.06
2023-02-09T18:16:52.753Z,4.14
2023-02-09T18:19:20.080Z,4.10
2023-02-09T18:21:51.772Z,4.06
2023-02-09T18:24:20.349Z,3.96
2023-02-09T18:26:47.853Z,4.03
2023-02-09T18:29:14.626Z,4.12
2023-02-09T18:31:41.485Z,4.11
2023-02-09T18:34:08.337Z,4.09
2023-02-09T18:36:35.655Z,3.97
2023-02-09T18:39:02.491Z,3.90
2023-02-09T18:41:29.230Z,3.95
2023-02-09T18:43:56.265Z,4.06
2023-02-09T18:46:25.289Z,4.13
2023-02-09T18:48:52.078Z,4.23
2023-02-09T18:51:18.755Z,4.05
2023-02-09T18:53:45.391Z,4.07
2023-02-09T18:56:22.418Z,4.21
2023-02-09T18:58:52.581Z,4.13
2023-02-09T19:01:21.306Z,4.17
2023-02-09T19:03:52.311Z,4.04
2023-02-09T19:06:20.856Z,3.97
2023-02-09T19:08:50.130Z,4.08
2023-02-09T19:11:18.518Z,4.22
2023-02-09T19:14:08.217Z,4.13
2023-02-09T19:16:37.994Z,4.24
2023-02-09T19:19:04.764Z,4.19
2023-02-09T19:21:32.278Z,4.02
2023-02-09T19:23:58.918Z,4.21
2023-02-09T19:26:25.642Z,4.33
2023-02-09T19:28:52.232Z,4.27
2023-02-09T19:31:18.885Z,4.34
2023-02-09T19:33:45.556Z,4.29
2023-02-09T19:36:12.506Z,4.36
2023-02-09T19:38:39.081Z,4.37
2023-02-09T19:41:11.850Z,4.25
2023-02-09T19:43:39.839Z,4.23
2023-02-09T19:46:08.140Z,4.17
2023-02-09T19:48:34.765Z,4.22
2023-02-09T19:51:04.306Z,4.32
2023-02-09T19:53:31.533Z,4.32
2023-02-09T19:55:58.152Z,4.01
2023-02-09T19:58:24.867Z,4.16
2023-02-09T20:00:53.435Z,3.96
2023-02-09T20:03:20.064Z,4.01
2023-02-09T20:05:47.031Z,4.15
2023-02-09T20:08:17.061Z,4.19
2023-02-09T20:10:46.817Z,4.21
2023-02-09T20:13:14.989Z,4.22
2023-02-09T20:15:43.859Z,3.75
2023-02-09T20:18:13.380Z,3.97
2023-02-09T20:20:43.088Z,3.89
2023-02-09T20:23:10.092Z,3.71
2023-02-09T20:25:40.385Z,3.58
2023-02-09T20:28:07.246Z,3.70
2023-02-09T20:30:34.223Z,3.84
2023-02-09T20:33:01.105Z,3.83
2023-02-09T20:35:27.664Z,3.55
2023-02-09T20:37:54.307Z,3.48
2023-02-09T20:40:21.600Z,3.34
2023-02-09T20:43:07.210Z,3.64
2023-02-09T20:45:52.406Z,3.44
2023-02-09T20:48:19.736Z,3.64
2023-02-09T20:50:46.728Z,3.82
2023-02-09T20:53:13.539Z,3.81
2023-02-09T20:55:40.274Z,3.57
2023-02-09T20:58:06.999Z,3.74
2023-02-09T21:00:33.794Z,3.50
2023-02-09T21:03:00.682Z,3.65
2023-02-09T21:05:27.498Z,3.77
2023-02-09T21:07:54.258Z,3.82
2023-02-09T21:10:21.784Z,3.76
2023-02-09T21:12:48.379Z,3.51
2023-02-09T21:15:15.954Z,3.64
2023-02-09T21:17:47.837Z,3.54
2023-02-09T21:20:16.764Z,3.81
2023-02-09T21:22:43.443Z,3.68
2023-02-09T21:25:10.598Z,3.86
2023-02-09T21:27:40.535Z,3.84
2023-02-09T21:30:07.452Z,3.87
2023-02-09T21:32:35.027Z,3.80
2023-02-09T21:35:02.007Z,3.79
2023-02-09T21:37:32.179Z,3.82
2023-02-09T21:40:02.979Z,3.96
2023-02-09T21:42:31.207Z,3.94
2023-02-09T21:44:59.466Z,3.83
2023-02-09T21:47:31.456Z,3.81
2023-02-09T21:49:58.861Z,3.84
2023-02-09T21:52:26.550Z,3.68
2023-02-09T21:54:53.852Z,3.81
2023-02-09T21:57:21.312Z,3.93
2023-02-09T21:59:48.130Z,3.84
2023-02-09T22:02:17.184Z,3.99
2023-02-09T22:04:45.593Z,3.89
2023-02-09T22:07:13.401Z,3.88
2023-02-09T22:09:41.756Z,3.86
2023-02-09T22:12:08.928Z,3.94
2023-02-09T22:14:35.702Z,3.85
2023-02-09T22:17:02.551Z,3.71
2023-02-09T22:19:29.205Z,3.76
2023-02-09T22:21:57.947Z,3.79
2023-02-09T22:24:25.149Z,3.59
2023-02-09T22:26:51.903Z,3.51
2023-02-09T22:29:19.406Z,3.63
2023-02-09T22:31:46.333Z,3.71
2023-02-09T22:34:13.330Z,3.85
2023-02-09T22:36:40.057Z,3.62
2023-02-09T22:39:07.524Z,3.75
2023-02-09T22:41:34.953Z,3.90
2023-02-09T22:44:12.918Z,3.90
2023-02-09T22:46:41.372Z,3.85
2023-02-09T22:49:19.415Z,3.78
2023-02-09T22:51:47.871Z,3.82
2023-02-09T22:54:16.447Z,3.85
2023-02-09T22:56:43.487Z,3.88
2023-02-09T22:59:12.606Z,3.76
2023-02-09T23:01:39.709Z,3.94
2023-02-09T23:04:06.452Z,3.95
2023-02-09T23:06:33.116Z,4.06
2023-02-09T23:09:02.522Z,4.09
2023-02-09T23:11:30.662Z,3.94
2023-02-09T23:14:09.201Z,3.95
2023-02-09T23:16:38.181Z,4.14
2023-02-09T23:19:08.399Z,4.17
2023-02-09T23:21:38.148Z,4.06
2023-02-09T23:24:05.603Z,4.13
2023-02-09T23:26:32.822Z,4.10
2023-02-09T23:29:01.697Z,4.11
2023-02-09T23:31:28.755Z,4.17
2023-02-09T23:33:55.800Z,4.02
2023-02-09T23:36:25.166Z,4.06
2023-02-09T23:38:57.065Z,4.12
2023-02-09T23:41:24.942Z,4.17
2023-02-09T23:43:52.607Z,4.02
2023-02-09T23:46:22.025Z,4.08
2023-02-09T23:48:49.024Z,3.91
2023-02-09T23:51:19.311Z,3.93
2023-02-09T23:53:47.567Z,4.05
2023-02-09T23:56:15.692Z,4.00
2023-02-09T23:58:45.178Z,3.96
